Time;durP1;ratioP1;P1;durP2;ratioP2;P2;SDS_P1;SDS_P2;PMS_P1;PMS_P2;Temp;Humidity;BMP_temperature;BMP_pressure;BME280_temperature;BME280_humidity;BME280_pressure;Samples;Min_cycle;Max_cycle;Signal;HPM_P1;HPM_P2
2022/12/23 00:00:13;;;;;;;;;0.00;0.00;;;;;-146.50;100.00;59256.41;5069426;27;45969;-73
2022/12/23 00:02:39;;;;;;;;;0.00;0.00;;;;;-146.50;100.00;59256.41;5070005;27;48344;-73
2022/12/23 00:05:05;;;;;;;;;1.00;1.00;;;;;-146.50;100.00;59256.41;5071173;27;45520;-74
2022/12/23 00:07:30;;;;;;;;;0.00;0.00;;;;;-146.50;100.00;59256.41;5071557;27;45636;-73
2022/12/23 00:09:56;;;;;;;;;1.00;1.00;;;;;-146.50;100.00;59256.41;5103770;27;45650;-73
2022/12/23 00:15:06;;;;;;;;;3.00;2.00;;;;;-146.50;100.00;59256.41;5070747;27;45529;-73
2022/12/23 00:17:41;;;;;;;;;2.67;2.67;;;;;-146.50;100.00;59256.41;5070464;27;45561;-72
2022/12/23 00:20:10;;;;;;;;;0.00;0.00;;;;;-146.50;100.00;59256.41;5071147;27;45583;-73
2022/12/23 00:25:19;;;;;;;;;0.00;0.00;;;;;-146.50;100.00;59256.41;5071704;27;45700;-73
2022/12/23 00:28:00;;;;;;;;;0.33;0.33;;;;;-146.50;100.00;59256.41;5071918;27;45376;-74
2022/12/23 00:30:26;;;;;;;;;0.00;0.00;;;;;-146.50;100.00;59256.41;5099410;27;45498;-73
2022/12/23 00:32:52;;;;;;;;;0.00;0.00;;;;;-146.50;100.00;59256.41;5072710;27;45911;-75
2022/12/23 00:35:17;;;;;;;;;0.00;0.00;;;;;-146.50;100.00;59256.41;5072034;27;45651;-76
2022/12/23 00:37:42;;;;;;;;;0.00;0.00;;;;;-146.50;100.00;59256.41;5079507;27;45455;-76
2022/12/23 00:42:56;;;;;;;;;0.00;0.00;;;;;-146.50;100.00;59256.41;5073925;27;45899;-75
2022/12/23 00:45:21;;;;;;;;;0.00;0.00;;;;;-146.50;100.00;59256.41;5075464;27;46570;-75
2022/12/23 00:50:34;;;;;;;;;0.00;0.00;;;;;-146.50;100.00;59256.41;5076674;27;45521;-76
2022/12/23 00:53:00;;;;;;;;;0.00;0.00;;;;;-146.50;100.00;59256.41;5073174;27;46531;-76
2022/12/23 00:55:25;;;;;;;;;0.00;0.00;;;;;-146.50;100.00;59256.41;5085156;27;45393;-74
2022/12/23 00:57:51;;;;;;;;;0.00;0.00;;;;;-146.50;100.00;59256.41;5080003;27;45653;-74
2022/12/23 01:00:17;;;;;;;;;0.00;0.00;;;;;-146.50;100.00;59256.41;5078586;27;45746;-74
2022/12/23 01:05:35;;;;;;;;;0.33;0.33;;;;;-146.50;100.00;59256.41;5075104;27;45397;-74
2022/12/23 01:08:02;;;;;;;;;0.00;0.00;;;;;-146.50;100.00;59256.41;5080035;27;45598;-74
2022/12/23 01:10:28;;;;;;;;;0.00;0.00;;;;;-146.50;100.00;59256.41;5117698;27;45533;-73
2022/12/23 01:12:53;;;;;;;;;0.00;0.00;;;;;-146.50;100.00;59256.41;5075519;27;46337;-74
2022/12/23 01:15:18;;;;;;;;;0.00;0.00;;;;;-146.50;100.00;59256.41;5085419;27;45686;-73
2022/12/23 01:17:44;;;;;;;;;0.00;0.00;;;;;-146.50;100.00;59256.41;5071286;27;45531;-75
2022/12/23 01:20:10;;;;;;;;;0.00;0.00;;;;;-146.50;100.00;59256.41;5071721;27;45582;-75
2022/12/23 01:22:35;;;;;;;;;0.00;0.00;;;;;-146.50;100.00;59256.41;5071235;27;45536;-75
2022/12/23 01:25:01;;;;;;;;;0.00;0.00;;;;;-146.50;100.00;59256.41;5072354;27;45475;-74
2022/12/23 01:27:26;;;;;;;;;0.00;0.00;;;;;-146.50;100.00;59256.41;5071459;27;45571;-75
2022/12/23 01:29:52;;;;;;;;;0.00;0.00;;;;;-146.50;100.00;59256.41;5071493;27;45433;-75
2022/12/23 01:32:17;;;;;;;;;0.00;0.00;;;;;-146.50;100.00;59256.41;5076921;27;45693;-73
2022/12/23 01:34:42;;;;;;;;;0.00;0.00;;;;;-146.50;100.00;59256.41;5071610;27;45701;-74
2022/12/23 01:37:08;;;;;;;;;0.00;0.00;;;;;-146.50;100.00;59256.41;5087217;27;45355;-73
2022/12/23 01:39:33;;;;;;;;;0.00;0.00;;;;;-146.50;100.00;59256.41;5071625;27;45421;-75
2022/12/23 01:44:49;;;;;;;;;0.00;0.00;;;;;-146.50;100.00;59256.41;5068451;27;45702;-75
2022/12/23 01:47:32;;;;;;;;;0.00;0.00;;;;;-146.50;100.00;59256.41;5069792;27;45480;-74
2022/12/23 01:50:03;;;;;;;;;0.00;0.00;;;;;-146.50;100.00;59256.41;5067775;27;45488;-73
2022/12/23 01:52:33;;;;;;;;;0.00;0.00;;;;;-146.50;100.00;59256.41;5067470;27;45846;-75
2022/12/23 01:54:59;;;;;;;;;0.00;0.00;;;;;-146.50;100.00;59256.41;5069171;27;45546;-74
2022/12/23 01:57:24;;;;;;;;;0.00;0.00;;;;;-146.50;100.00;59256.41;5067829;27;45877;-74
2022/12/23 02:05:22;;;;;;;;;0.00;0.00;;;;;-146.50;100.00;59256.41;5069139;27;45753;-74
2022/12/23 02:11:05;;;;;;;;;0.00;0.00;;;;;-146.50;100.00;59256.41;5069868;27;45519;-74
2022/12/23 02:17:08;;;;;;;;;0.00;0.00;;;;;-146.50;100.00;59256.41;5045470;28;45858;-74
2022/12/23 02:19:59;;;;;;;;;1.00;1.00;;;;;-146.50;100.00;59256.41;5045471;28;45518;-74
2022/12/23 02:23:22;;;;;;;;;0.00;0.00;;;;;-146.50;100.00;59256.41;5045027;28;45508;-74
2022/12/23 02:26:25;;;;;;;;;1.00;1.00;;;;;-146.50;100.00;59256.41;4974655;28;45544;-74
2022/12/23 02:29:12;;;;;;;;;0.00;0.00;;;;;-146.50;100.00;59256.41;4976069;28;45526;-74
2022/12/23 02:31:48;;;;;;;;;0.00;0.00;;;;;-146.50;100.00;59256.41;4979176;28;45737;-74
2022/12/23 02:34:33;;;;;;;;;0.00;0.00;;;;;-146.50;100.00;59256.41;4980403;28;45737;-74
2022/12/23 02:37:12;;;;;;;;;0.00;0.00;;;;;-146.50;100.00;59256.41;4984977;28;45485;-73
2022/12/23 02:39:52;;;;;;;;;0.33;0.00;;;;;-146.50;100.00;59256.41;4991911;28;45488;-74
2022/12/23 02:42:36;;;;;;;;;0.00;0.00;;;;;-146.50;100.00;59256.41;4975547;28;45647;-73
2022/12/23 02:45:22;;;;;;;;;0.00;0.00;;;;;-146.50;100.00;59256.41;4973334;28;45688;-73
2022/12/23 02:47:54;;;;;;;;;0.00;0.00;;;;;-146.50;100.00;59256.41;4974183;28;45729;-73
2022/12/23 02:50:26;;;;;;;;;1.67;1.00;;;;;-146.50;100.00;59256.41;4987782;28;45557;-72
2022/12/23 02:52:55;;;;;;;;;1.00;1.00;;;;;-146.50;100.00;59256.41;5003842;28;45742;-72
2022/12/23 02:55:27;;;;;;;;;4.00;3.00;;;;;-146.50;100.00;59256.41;4992506;28;45501;-73
2022/12/23 02:57:55;;;;;;;;;0.33;0.33;;;;;-146.50;100.00;59256.41;5087308;27;45727;-73
2022/12/23 03:00:22;;;;;;;;;2.00;1.00;;;;;-146.50;100.00;59256.41;5054849;28;45443;-74
2022/12/23 03:02:47;;;;;;;;;0.00;0.00;;;;;-146.50;100.00;59256.41;5055743;28;45346;-74
2022/12/23 03:05:28;;;;;;;;;0.00;0.00;;;;;-146.50;100.00;59256.41;5055206;28;45655;-73
2022/12/23 03:08:01;;;;;;;;;0.00;0.00;;;;;-146.50;100.00;59256.41;5054106;28;45686;-73
2022/12/23 03:10:45;;;;;;;;;0.00;0.00;;;;;-146.50;100.00;59256.41;5054507;28;45557;-74
2022/12/23 03:13:43;;;;;;;;;1.00;1.00;;;;;-146.50;100.00;59256.41;5054671;28;45489;-74
2022/12/23 03:16:35;;;;;;;;;0.67;0.00;;;;;-146.50;100.00;59256.41;5054609;28;45644;-74
2022/12/23 03:19:31;;;;;;;;;1.00;1.00;;;;;-146.50;100.00;59256.41;5053653;28;45441;-73
2022/12/23 03:22:23;;;;;;;;;0.00;0.00;;;;;-146.50;100.00;59256.41;5054236;28;45624;-74
2022/12/23 03:25:13;;;;;;;;;1.00;1.00;;;;;-146.50;100.00;59256.41;5054408;28;45304;-74
2022/12/23 03:27:40;;;;;;;;;1.50;1.50;;;;;-146.50;100.00;59256.41;5054308;28;45429;-74
2022/12/23 03:30:07;;;;;;;;;1.00;0.00;;;;;-146.50;100.00;59256.41;5086244;27;47320;-75
2022/12/23 03:32:55;;;;;;;;;1.00;1.00;;;;;-146.50;100.00;59256.41;5053971;28;45374;-75
2022/12/23 03:35:28;;;;;;;;;1.00;1.00;;;;;-146.50;100.00;59256.41;5053939;28;45429;-76
2022/12/23 03:37:58;;;;;;;;;1.00;1.00;;;;;-146.50;100.00;59256.41;5054291;28;45394;-76
2022/12/23 03:40:35;;;;;;;;;3.00;1.00;;;;;-146.50;100.00;59256.41;5053885;27;46179;-75
2022/12/23 03:43:08;;;;;;;;;0.00;0.00;;;;;-146.50;100.00;59256.41;5072566;28;45847;-75
2022/12/23 03:45:45;;;;;;;;;0.67;0.67;;;;;-146.50;100.00;59256.41;5074318;28;45592;-75
2022/12/23 03:48:28;;;;;;;;;3.67;1.33;;;;;-146.50;100.00;59256.41;5074393;28;45445;-75
2022/12/23 03:51:03;;;;;;;;;0.33;0.33;;;;;-146.50;100.00;59256.41;5074234;28;45508;-75
2022/12/23 03:53:34;;;;;;;;;0.00;0.00;;;;;-146.50;100.00;59256.41;5073848;27;45854;-75
2022/12/23 03:56:06;;;;;;;;;2.00;2.00;;;;;-146.50;100.00;59256.41;5072787;28;45462;-75
2022/12/23 03:58:55;;;;;;;;;0.00;0.00;;;;;-146.50;100.00;59256.41;5073721;27;45755;-75
2022/12/23 04:01:42;;;;;;;;;2.67;0.00;;;;;-146.50;100.00;59256.41;5073611;28;45703;-75
2022/12/23 04:04:29;;;;;;;;;2.00;1.00;;;;;-146.50;100.00;59256.41;5073190;27;45689;-75
2022/12/23 04:06:59;;;;;;;;;1.33;1.33;;;;;-146.50;100.00;59256.41;5073693;28;45459;-75
2022/12/23 04:09:26;;;;;;;;;1.00;1.00;;;;;-146.50;100.00;59256.41;5073280;27;45768;-75
2022/12/23 04:11:52;;;;;;;;;1.67;0.00;;;;;-146.50;100.00;59256.41;5073063;27;46673;-74
2022/12/23 04:14:20;;;;;;;;;0.67;0.67;;;;;-146.50;100.00;59256.41;5072467;28;45436;-74
2022/12/23 04:16:48;;;;;;;;;0.33;0.33;;;;;-146.50;100.00;59256.41;5072731;27;45510;-76
2022/12/23 04:19:14;;;;;;;;;1.00;0.00;;;;;-146.50;100.00;59256.41;5071981;28;45378;-75
2022/12/23 04:21:39;;;;;;;;;0.00;0.00;;;;;-146.50;100.00;59256.41;5072522;27;46083;-75
2022/12/23 04:24:05;;;;;;;;;0.00;0.00;;;;;-146.50;100.00;59256.41;5071074;27;45399;-75
2022/12/23 04:26:30;;;;;;;;;0.00;0.00;;;;;-146.50;100.00;59256.41;5053290;28;45302;-76
2022/12/23 04:28:55;;;;;;;;;1.33;1.00;;;;;-146.50;100.00;59256.41;5053177;28;45745;-75
2022/12/23 04:31:21;;;;;;;;;1.33;0.33;;;;;-146.50;100.00;59256.41;5053474;28;45991;-75
2022/12/23 04:33:46;;;;;;;;;0.00;0.00;;;;;-146.50;100.00;59256.41;5067540;28;45539;-75
2022/12/23 04:36:11;;;;;;;;;2.00;0.00;;;;;-146.50;100.00;59256.41;5073213;27;45594;-75
2022/12/23 04:38:37;;;;;;;;;1.67;0.67;;;;;-146.50;100.00;59256.41;5073741;27;45584;-73
2022/12/23 04:41:02;;;;;;;;;0.67;0.00;;;;;-146.50;100.00;59256.41;5073213;27;45470;-73
2022/12/23 04:43:27;;;;;;;;;2.33;0.33;;;;;-146.50;100.00;59256.41;5073370;27;45447;-73
2022/12/23 04:45:53;;;;;;;;;0.67;0.67;;;;;-146.50;100.00;59256.41;5070059;27;45436;-73
2022/12/23 04:48:18;;;;;;;;;0.33;0.00;;;;;-146.50;100.00;59256.41;5073489;27;45400;-73
2022/12/23 04:50:44;;;;;;;;;3.00;2.00;;;;;-146.50;100.00;59256.41;5070567;28;46011;-72
2022/12/23 04:53:09;;;;;;;;;0.00;0.00;;;;;-146.50;100.00;59256.41;5073279;27;45676;-73
2022/12/23 04:55:34;;;;;;;;;0.00;0.00;;;;;-146.50;100.00;59256.41;5073672;27;45430;-73
2022/12/23 04:57:59;;;;;;;;;2.00;1.00;;;;;-146.50;100.00;59256.41;5072627;27;45438;-73
2022/12/23 05:00:25;;;;;;;;;2.67;1.00;;;;;-146.50;100.00;59256.41;5073061;27;47020;-73
2022/12/23 05:02:50;;;;;;;;;2.00;1.00;;;;;-146.50;100.00;59256.41;5105975;27;45511;-73
2022/12/23 05:05:16;;;;;;;;;1.00;1.00;;;;;-146.50;100.00;59256.41;5073172;27;45772;-73
2022/12/23 05:07:41;;;;;;;;;1.00;1.00;;;;;-146.50;100.00;59256.41;5072032;28;45744;-73
2022/12/23 05:10:07;;;;;;;;;2.33;1.00;;;;;-146.50;100.00;59256.41;5072860;27;46274;-73
2022/12/23 05:12:32;;;;;;;;;2.00;1.00;;;;;-146.50;100.00;59256.41;5072885;27;45378;-73
2022/12/23 05:14:58;;;;;;;;;0.67;0.00;;;;;-146.50;100.00;59256.41;5072884;27;45610;-73
2022/12/23 05:17:23;;;;;;;;;2.00;0.33;;;;;-146.50;100.00;59256.41;5073205;27;45638;-73
2022/12/23 05:19:48;;;;;;;;;0.00;0.00;;;;;-146.50;100.00;59256.41;5072835;27;45372;-73
2022/12/23 05:22:14;;;;;;;;;1.67;0.00;;;;;-146.50;100.00;59256.41;5072908;27;45481;-73
2022/12/23 05:24:39;;;;;;;;;1.00;1.00;;;;;-146.50;100.00;59256.41;5071587;28;45474;-73
2022/12/23 05:27:04;;;;;;;;;1.00;1.00;;;;;-146.50;100.00;59256.41;5069696;27;45468;-75
2022/12/23 05:29:30;;;;;;;;;2.00;0.33;;;;;-146.50;100.00;59256.41;5072447;27;45597;-75
2022/12/23 05:31:55;;;;;;;;;2.00;0.00;;;;;-146.50;100.00;59256.41;5072684;27;45567;-75
2022/12/23 05:34:21;;;;;;;;;1.00;0.00;;;;;-146.50;100.00;59256.41;5072328;27;45398;-75
2022/12/23 05:36:46;;;;;;;;;1.00;1.00;;;;;-146.50;100.00;59256.41;5073014;27;45397;-75
2022/12/23 05:39:12;;;;;;;;;0.67;0.00;;;;;-146.50;100.00;59256.41;5072807;28;45574;-75
2022/12/23 05:41:37;;;;;;;;;1.00;1.00;;;;;-146.50;100.00;59256.41;5073066;27;45460;-73
2022/12/23 05:44:02;;;;;;;;;0.00;0.00;;;;;-146.50;100.00;59256.41;5071529;28;45382;-73
2022/12/23 05:46:28;;;;;;;;;0.00;0.00;;;;;-146.50;100.00;59256.41;5072816;27;45444;-74
2022/12/23 05:48:53;;;;;;;;;0.00;0.00;;;;;-146.50;100.00;59256.41;5072644;27;46090;-73
2022/12/23 05:51:18;;;;;;;;;1.00;0.00;;;;;-146.50;100.00;59256.41;5072843;28;45779;-73
2022/12/23 05:53:44;;;;;;;;;0.00;0.00;;;;;-146.50;100.00;59256.41;5072497;28;46169;-74
2022/12/23 05:56:09;;;;;;;;;0.00;0.00;;;;;-146.50;100.00;59256.41;5072967;28;45652;-73
2022/12/23 05:58:34;;;;;;;;;0.00;0.00;;;;;-146.50;100.00;59256.41;5071584;27;46312;-73
2022/12/23 06:01:02;;;;;;;;;0.00;0.00;;;;;-146.50;100.00;59256.41;5061187;28;45457;-73
2022/12/23 06:03:27;;;;;;;;;0.00;0.00;;;;;-146.50;100.00;59256.41;5075226;27;45713;-73
2022/12/23 06:05:53;;;;;;;;;0.00;0.00;;;;;-146.50;100.00;59256.41;5076005;28;45422;-74
2022/12/23 06:08:19;;;;;;;;;1.00;0.00;;;;;-146.50;100.00;59256.41;5075670;28;46768;-74
2022/12/23 06:10:45;;;;;;;;;0.00;0.00;;;;;-146.50;100.00;59256.41;5076110;27;45377;-74
2022/12/23 06:13:10;;;;;;;;;1.00;0.00;;;;;-146.50;100.00;59256.41;5075876;27;45606;-73
2022/12/23 06:15:35;;;;;;;;;0.00;0.00;;;;;-146.50;100.00;59256.41;5074924;28;45420;-74
2022/12/23 06:18:01;;;;;;;;;0.00;0.00;;;;;-146.50;100.00;59256.41;5075753;27;45626;-74
2022/12/23 06:20:26;;;;;;;;;0.00;0.00;;;;;-146.50;100.00;59256.41;5075713;27;45777;-74
2022/12/23 06:22:52;;;;;;;;;0.00;0.00;;;;;-146.50;100.00;59256.41;5076280;27;45665;-74
2022/12/23 06:25:17;;;;;;;;;0.00;0.00;;;;;-146.50;100.00;59256.41;5076171;27;45724;-74
2022/12/23 06:27:43;;;;;;;;;0.00;0.00;;;;;-146.50;100.00;59256.41;5076307;27;45771;-73
2022/12/23 06:30:09;;;;;;;;;0.00;0.00;;;;;-146.50;100.00;59256.41;5075781;27;45445;-74
2022/12/23 06:32:34;;;;;;;;;0.00;0.00;;;;;-146.50;100.00;59256.41;5075940;27;45652;-73
2022/12/23 06:34:59;;;;;;;;;0.00;0.00;;;;;-146.50;100.00;59256.41;5076371;27;45718;-73
2022/12/23 06:37:25;;;;;;;;;0.00;0.00;;;;;-146.50;100.00;59256.41;5075705;27;46173;-73
2022/12/23 06:39:50;;;;;;;;;0.00;0.00;;;;;-146.50;100.00;59256.41;5075500;27;45393;-73
2022/12/23 06:42:16;;;;;;;;;0.00;0.00;;;;;-146.50;100.00;59256.41;5075423;27;45448;-73
2022/12/23 06:44:41;;;;;;;;;0.00;0.00;;;;;-146.50;100.00;59256.41;5073940;28;45585;-73
2022/12/23 06:47:06;;;;;;;;;0.67;0.00;;;;;-146.50;100.00;59256.41;5075035;28;45379;-73
2022/12/23 06:49:31;;;;;;;;;0.33;0.00;;;;;-146.50;100.00;59256.41;5075059;28;45584;-73
2022/12/23 06:51:57;;;;;;;;;1.00;0.00;;;;;-146.50;100.00;59256.41;5056957;28;45431;-73
2022/12/23 06:54:22;;;;;;;;;0.00;0.00;;;;;-146.50;100.00;59256.41;5075399;28;45450;-73
2022/12/23 06:56:47;;;;;;;;;0.00;0.00;;;;;-146.50;100.00;59256.41;5074918;28;46275;-73
2022/12/23 06:59:13;;;;;;;;;0.00;0.00;;;;;-146.50;100.00;59256.41;5075194;27;45924;-72
2022/12/23 07:01:39;;;;;;;;;0.00;0.00;;;;;-146.50;100.00;59256.41;5075180;27;45608;-73
2022/12/23 07:04:04;;;;;;;;;0.00;0.00;;;;;-146.50;100.00;59256.41;5074035;28;45553;-74
2022/12/23 07:06:30;;;;;;;;;6.25;5.25;;;;;-146.50;100.00;59256.41;5075103;27;45964;-73
2022/12/23 07:08:56;;;;;;;;;0.00;0.00;;;;;-146.50;100.00;59256.41;5074669;27;45326;-74
2022/12/23 07:11:21;;;;;;;;;0.00;0.00;;;;;-146.50;100.00;59256.41;5075275;27;45364;-74
2022/12/23 07:13:46;;;;;;;;;0.00;0.00;;;;;-146.50;100.00;59256.41;5073729;27;45379;-74
2022/12/23 07:16:12;;;;;;;;;0.00;0.00;;;;;-146.50;100.00;59256.41;5074717;27;45442;-75
2022/12/23 07:18:38;;;;;;;;;0.00;0.00;;;;;-146.50;100.00;59256.41;5074827;27;45408;-75
2022/12/23 07:21:04;;;;;;;;;0.00;0.00;;;;;-146.50;100.00;59256.41;5074837;27;45414;-75
2022/12/23 07:23:29;;;;;;;;;0.00;0.00;;;;;-146.50;100.00;59256.41;5074968;27;45668;-75
2022/12/23 07:25:55;;;;;;;;;0.00;0.00;;;;;-146.50;100.00;59256.41;5073493;28;48276;-75
2022/12/23 07:28:24;;;;;;;;;0.00;0.00;;;;;-146.50;100.00;59256.41;5071497;27;45635;-75
2022/12/23 07:30:49;;;;;;;;;0.00;0.00;;;;;-146.50;100.00;59256.41;5075080;28;45337;-75
2022/12/23 07:33:14;;;;;;;;;0.33;0.00;;;;;-146.50;100.00;59256.41;5074734;28;45842;-75
2022/12/23 07:35:42;;;;;;;;;0.00;0.00;;;;;-146.50;100.00;59256.41;5074677;27;45518;-75
2022/12/23 07:38:08;;;;;;;;;0.67;0.00;;;;;-146.50;100.00;59256.41;5074567;28;45542;-74
2022/12/23 07:40:34;;;;;;;;;0.00;0.00;;;;;-146.50;100.00;59256.41;5074740;28;45514;-74
2022/12/23 07:43:00;;;;;;;;;0.00;0.00;;;;;-146.50;100.00;59256.41;5074938;28;45539;-74
2022/12/23 07:45:27;;;;;;;;;0.00;0.00;;;;;-146.50;100.00;59256.41;5074218;28;45456;-75
2022/12/23 07:47:54;;;;;;;;;0.00;0.00;;;;;-146.50;100.00;59256.41;5056833;28;45637;-74
2022/12/23 07:50:20;;;;;;;;;0.00;0.00;;;;;-146.50;100.00;59256.41;5074848;28;45357;-74
2022/12/23 07:52:46;;;;;;;;;0.00;0.00;;;;;-146.50;100.00;59256.41;5074782;28;45513;-74
2022/12/23 07:55:11;;;;;;;;;0.00;0.00;;;;;-146.50;100.00;59256.41;5074334;28;45700;-74
2022/12/23 07:57:37;;;;;;;;;0.00;0.00;;;;;-146.50;100.00;59256.41;5070549;27;45530;-75
2022/12/23 08:00:08;;;;;;;;;0.00;0.00;;;;;-146.50;100.00;59256.41;5074307;28;45923;-75
2022/12/23 08:02:34;;;;;;;;;0.00;0.00;;;;;-146.50;100.00;59256.41;5074155;28;45346;-74
2022/12/23 08:04:59;;;;;;;;;0.00;0.00;;;;;-146.50;100.00;59256.41;5072865;28;45735;-73
2022/12/23 08:07:25;;;;;;;;;0.00;0.00;;;;;-146.50;100.00;59256.41;5073682;28;45492;-73
2022/12/23 08:09:50;;;;;;;;;2.00;2.00;;;;;-146.50;100.00;59256.41;5073543;28;45415;-73
2022/12/23 08:12:15;;;;;;;;;0.00;0.00;;;;;-146.50;100.00;59256.41;5073877;28;45362;-73
2022/12/23 08:14:41;;;;;;;;;0.00;0.00;;;;;-146.50;100.00;59256.41;5073786;28;45782;-73
2022/12/23 08:17:06;;;;;;;;;0.00;0.00;;;;;-146.50;100.00;59256.41;5073769;28;45439;-73
2022/12/23 08:19:32;;;;;;;;;0.00;0.00;;;;;-146.50;100.00;59256.41;5074188;28;45388;-73
2022/12/23 08:21:57;;;;;;;;;1.00;0.00;;;;;-146.50;100.00;59256.41;5072780;28;45876;-74
2022/12/23 08:24:22;;;;;;;;;1.00;0.00;;;;;-146.50;100.00;59256.41;5073163;27;45594;-74
2022/12/23 08:26:48;;;;;;;;;0.00;0.00;;;;;-146.50;100.00;59256.41;5055290;28;45485;-74
2022/12/23 08:29:13;;;;;;;;;0.00;0.00;;;;;-146.50;100.00;59256.41;5072165;28;45503;-74
2022/12/23 08:31:38;;;;;;;;;0.00;0.00;;;;;-146.50;100.00;59256.41;5072283;28;45649;-75
2022/12/23 08:34:04;;;;;;;;;0.00;0.00;;;;;-146.50;100.00;59256.41;5073742;27;45637;-74
2022/12/23 08:36:32;;;;;;;;;0.00;0.00;;;;;-146.50;100.00;59256.41;5073608;27;45486;-75
2022/12/23 08:39:01;;;;;;;;;0.00;0.00;;;;;-146.50;100.00;59256.41;5073747;27;45475;-74
2022/12/23 08:41:30;;;;;;;;;0.00;0.00;;;;;-146.50;100.00;59256.41;5073686;27;45357;-74
2022/12/23 08:43:56;;;;;;;;;0.00;0.00;;;;;-146.50;100.00;59256.41;5073206;27;46918;-74
2022/12/23 08:46:22;;;;;;;;;0.00;0.00;;;;;-146.50;100.00;59256.41;5073300;27;45490;-73
2022/12/23 08:48:47;;;;;;;;;0.00;0.00;;;;;-146.50;100.00;59256.41;5073661;27;45372;-73
2022/12/23 08:51:15;;;;;;;;;0.00;0.00;;;;;-146.50;100.00;59256.41;5071690;27;45425;-76
2022/12/23 08:53:41;;;;;;;;;0.00;0.00;;;;;-146.50;100.00;59256.41;5073075;27;46188;-73
2022/12/23 08:56:10;;;;;;;;;0.00;0.00;;;;;-146.50;100.00;59256.41;5073647;27;45505;-73
2022/12/23 08:58:37;;;;;;;;;0.00;0.00;;;;;-146.50;100.00;59256.41;5073660;27;45542;-74
2022/12/23 09:01:04;;;;;;;;;0.00;0.00;;;;;-146.50;100.00;59256.41;5073464;27;45444;-73
2022/12/23 09:03:30;;;;;;;;;0.00;0.00;;;;;-146.50;100.00;59256.41;5072734;28;46175;-75
2022/12/23 09:05:55;;;;;;;;;0.00;0.00;;;;;-146.50;100.00;59256.41;5073128;28;45568;-75
2022/12/23 09:08:21;;;;;;;;;0.00;0.00;;;;;-146.50;100.00;59256.41;5073076;27;45432;-74
2022/12/23 09:10:46;;;;;;;;;0.00;0.00;;;;;-146.50;100.00;59256.41;5072090;28;45402;-74
2022/12/23 09:13:12;;;;;;;;;0.00;0.00;;;;;-146.50;100.00;59256.41;5071925;27;46047;-74
2022/12/23 09:15:42;;;;;;;;;0.00;0.00;;;;;-146.50;100.00;59256.41;5073059;27;45412;-73
2022/12/23 09:18:08;;;;;;;;;0.00;0.00;;;;;-146.50;100.00;59256.41;5072822;27;45547;-74
2022/12/23 09:20:34;;;;;;;;;0.00;0.00;;;;;-146.50;100.00;59256.41;5071908;27;45748;-73
2022/12/23 09:23:00;;;;;;;;;0.00;0.00;;;;;-146.50;100.00;59256.41;5066377;27;46689;-73
2022/12/23 09:25:26;;;;;;;;;0.00;0.00;;;;;-146.50;100.00;59256.41;5065399;28;45741;-73
2022/12/23 09:27:51;;;;;;;;;0.00;0.00;;;;;-146.50;100.00;59256.41;5073432;27;45637;-73
2022/12/23 09:30:17;;;;;;;;;0.00;0.00;;;;;-146.50;100.00;59256.41;5073109;27;45616;-73
2022/12/23 09:32:42;;;;;;;;;0.00;0.00;;;;;-146.50;100.00;59256.41;5072482;27;45597;-73
2022/12/23 09:35:08;;;;;;;;;0.00;0.00;;;;;-146.50;100.00;59256.41;5060363;28;45548;-73
2022/12/23 09:37:34;;;;;;;;;0.00;0.00;;;;;-146.50;100.00;59256.41;5066186;28;45642;-73
2022/12/23 09:40:00;;;;;;;;;0.00;0.00;;;;;-146.50;100.00;59256.41;5073006;27;45564;-74
2022/12/23 09:42:48;;;;;;;;;0.00;0.00;;;;;-146.50;100.00;59256.41;5072964;28;46596;-73
2022/12/23 09:45:14;;;;;;;;;0.00;0.00;;;;;-146.50;100.00;59256.41;5073393;28;45636;-73
2022/12/23 09:47:41;;;;;;;;;0.00;0.00;;;;;-146.50;100.00;59256.41;5074964;28;45391;-77
2022/12/23 09:50:32;;;;;;;;;0.00;0.00;;;;;-146.50;100.00;59256.41;5072762;28;45530;-74
2022/12/23 09:53:20;;;;;;;;;0.00;0.00;;;;;-146.50;100.00;59256.41;5063684;27;46861;-74
2022/12/23 09:56:03;;;;;;;;;0.00;0.00;;;;;-146.50;100.00;59256.41;5072956;28;45388;-73
2022/12/23 09:58:52;;;;;;;;;0.00;0.00;;;;;-146.50;100.00;59256.41;5073081;27;45998;-73
2022/12/23 10:01:26;;;;;;;;;0.00;0.00;;;;;-146.50;100.00;59256.41;5051242;28;45810;-74
2022/12/23 10:03:58;;;;;;;;;0.00;0.00;;;;;-146.50;100.00;59256.41;5052346;28;45552;-74
2022/12/23 10:06:29;;;;;;;;;0.00;0.00;;;;;-146.50;100.00;59256.41;5051973;28;45503;-74
2022/12/23 10:09:00;;;;;;;;;0.00;0.00;;;;;-146.50;100.00;59256.41;5051825;28;45659;-72
2022/12/23 10:11:34;;;;;;;;;0.00;0.00;;;;;-146.50;100.00;59256.41;5061334;28;45468;-75
2022/12/23 10:14:13;;;;;;;;;0.00;0.00;;;;;-146.50;100.00;59256.41;5071518;28;45400;-75
2022/12/23 10:16:43;;;;;;;;;0.00;0.00;;;;;-146.50;100.00;59256.41;5071550;27;45500;-75
2022/12/23 10:19:33;;;;;;;;;0.00;0.00;;;;;-146.50;100.00;59256.41;5070780;28;45438;-74
2022/12/23 10:22:05;;;;;;;;;0.00;0.00;;;;;-146.50;100.00;59256.41;5071355;28;45530;-73
2022/12/23 10:24:43;;;;;;;;;0.00;0.00;;;;;-146.50;100.00;59256.41;5068103;28;46657;-73
2022/12/23 10:27:21;;;;;;;;;0.00;0.00;;;;;-146.50;100.00;59256.41;5069058;28;45527;-74
2022/12/23 10:29:46;;;;;;;;;0.00;0.00;;;;;-146.50;100.00;59256.41;5071091;27;45350;-74
2022/12/23 10:32:20;;;;;;;;;0.00;0.00;;;;;-146.50;100.00;59256.41;5071799;27;45532;-74
2022/12/23 10:34:56;;;;;;;;;0.00;0.00;;;;;-146.50;100.00;59256.41;5069122;28;45539;-75
2022/12/23 10:37:42;;;;;;;;;0.00;0.00;;;;;-146.50;100.00;59256.41;5071326;27;45414;-74
2022/12/23 10:40:25;;;;;;;;;1.00;0.00;;;;;-146.50;100.00;59256.41;5069415;28;45279;-74
2022/12/23 10:43:29;;;;;;;;;0.00;0.00;;;;;-146.50;100.00;59256.41;5069531;28;45706;-73
2022/12/23 10:46:12;;;;;;;;;0.00;0.00;;;;;-146.50;100.00;59256.41;5069082;28;47459;-74
2022/12/23 10:48:54;;;;;;;;;0.00;0.00;;;;;-146.50;100.00;59256.41;5069171;28;45505;-74
2022/12/23 10:51:27;;;;;;;;;0.00;0.00;;;;;-146.50;100.00;59256.41;5074433;28;45461;-74
2022/12/23 10:53:54;;;;;;;;;0.00;0.00;;;;;-146.50;100.00;59256.41;5074767;28;45469;-74
2022/12/23 10:56:20;;;;;;;;;0.00;0.00;;;;;-146.50;100.00;59256.41;5075793;27;46278;-74
2022/12/23 10:58:52;;;;;;;;;0.00;0.00;;;;;-146.50;100.00;59256.41;5074777;28;45481;-74
2022/12/23 11:01:18;;;;;;;;;0.00;0.00;;;;;-146.50;100.00;59256.41;5075382;28;45764;-74
2022/12/23 11:04:04;;;;;;;;;0.00;0.00;;;;;-146.50;100.00;59256.41;5075403;28;45490;-73
2022/12/23 11:06:32;;;;;;;;;0.00;0.00;;;;;-146.50;100.00;59256.41;5074961;28;46132;-75
2022/12/23 11:09:01;;;;;;;;;0.00;0.00;;;;;-146.50;100.00;59256.41;5074107;27;45427;-75
2022/12/23 11:11:55;;;;;;;;;0.00;0.00;;;;;-146.50;100.00;59256.41;5075097;27;45777;-73
2022/12/23 11:14:35;;;;;;;;;0.00;0.00;;;;;-146.50;100.00;59256.41;5074321;28;45783;-74
2022/12/23 11:17:00;;;;;;;;;1.00;0.00;;;;;-146.50;100.00;59256.41;5074578;28;45907;-74
2022/12/23 11:19:26;;;;;;;;;0.00;0.00;;;;;-146.50;100.00;59256.41;5074659;27;45669;-73
2022/12/23 11:21:54;;;;;;;;;0.00;0.00;;;;;-146.50;100.00;59256.41;5074093;27;45456;-74
2022/12/23 11:24:21;;;;;;;;;0.00;0.00;;;;;-146.50;100.00;59256.41;5074562;28;45895;-74
2022/12/23 11:26:50;;;;;;;;;0.00;0.00;;;;;-146.50;100.00;59256.41;5071672;28;47264;-73
2022/12/23 11:29:43;;;;;;;;;0.00;0.00;;;;;-146.50;100.00;59256.41;5074079;28;45422;-73
2022/12/23 11:32:22;;;;;;;;;0.00;0.00;;;;;-146.50;100.00;59256.41;5071828;28;45338;-73
2022/12/23 11:34:49;;;;;;;;;0.00;0.00;;;;;-146.50;100.00;59256.41;5072094;28;45830;-73
2022/12/23 11:37:41;;;;;;;;;0.00;0.00;;;;;-146.50;100.00;59256.41;5074022;28;46145;-73
2022/12/23 11:40:29;;;;;;;;;0.00;0.00;;;;;-146.50;100.00;59256.41;5070152;28;45347;-74
2022/12/23 11:42:57;;;;;;;;;0.00;0.00;;;;;-146.50;100.00;59256.41;5072760;28;45701;-73
2022/12/23 11:45:27;;;;;;;;;0.00;0.00;;;;;-146.50;100.00;59256.41;5089800;27;45789;-73
2022/12/23 11:47:52;;;;;;;;;0.00;0.00;;;;;-146.50;100.00;59256.41;5090233;27;48279;-74
2022/12/23 11:50:36;;;;;;;;;0.00;0.00;;;;;-146.50;100.00;59256.41;5071798;28;45394;-73